createdAt,value
2022-10-19T00:05:00.169Z,100974.38
2022-10-19T00:10:01.790Z,100974.84
2022-10-19T00:15:05.100Z,100970.50
2022-10-19T00:20:07.011Z,100977.78
2022-10-19T00:25:09.550Z,100973.03
2022-10-19T00:30:11.366Z,100972.97
2022-10-19T00:35:12.887Z,100984.09
2022-10-19T00:40:14.476Z,100986.84
2022-10-19T00:45:17.772Z,100983.59
2022-10-19T00:50:19.513Z,100982.47
2022-10-19T00:55:21.366Z,100985.13
2022-10-19T01:00:22.893Z,100992.34
2022-10-19T01:05:25.545Z,100986.00
2022-10-19T01:10:57.651Z,100979.09
2022-10-19T01:16:33.764Z,100974.78
2022-10-19T01:21:45.814Z,100967.09
2022-10-19T01:27:15.295Z,100964.53
2022-10-19T01:32:45.823Z,100967.50
2022-10-19T01:38:04.939Z,100960.56
2022-10-19T01:43:19.180Z,100957.25
2022-10-19T01:48:43.121Z,100962.53
2022-10-19T01:53:51.687Z,100954.91
2022-10-19T01:58:56.954Z,100966.34
2022-10-19T02:04:00.523Z,100968.25
2022-10-19T02:09:02.141Z,100968.34
2022-10-19T02:14:12.682Z,100967.53
2022-10-19T02:19:16.615Z,100962.31
2022-10-19T02:24:18.256Z,100961.25
2022-10-19T02:29:20.243Z,100959.63
2022-10-19T02:34:21.905Z,100958.94
2022-10-19T02:39:23.932Z,100956.22
2022-10-19T02:44:36.917Z,100949.13
2022-10-19T02:49:39.291Z,100971.91
2022-10-19T02:54:42.778Z,100959.72
2022-10-19T02:59:44.515Z,100963.97
2022-10-19T03:09:49.567Z,100956.94
2022-10-19T03:14:51.128Z,100950.94
2022-10-19T03:19:52.703Z,100941.16
2022-10-19T03:24:54.263Z,100950.25
2022-10-19T03:29:55.750Z,100944.53
2022-10-19T03:34:57.268Z,100946.44
2022-10-19T03:39:58.903Z,100952.44
2022-10-19T03:45:00.520Z,100953.56
2022-10-19T03:50:02.106Z,100969.72
2022-10-19T03:55:03.830Z,100973.28
2022-10-19T04:00:05.817Z,100965.00
2022-10-19T04:05:13.511Z,100974.63
2022-10-19T04:10:15.225Z,100968.53
2022-10-19T04:15:16.863Z,100971.06
2022-10-19T04:20:18.412Z,100978.88
2022-10-19T04:25:20.265Z,100979.88
2022-10-19T04:30:21.823Z,100983.28
2022-10-19T04:35:23.435Z,100984.97
2022-10-19T04:40:25.800Z,100982.50
2022-10-19T04:45:27.380Z,100986.00
2022-10-19T04:50:29.005Z,100993.84
2022-10-19T04:55:30.554Z,100996.63
2022-10-19T05:00:32.340Z,100998.34
2022-10-19T05:05:34.522Z,100985.84
2022-10-19T05:10:37.188Z,100999.16
2022-10-19T05:15:38.762Z,101003.47
2022-10-19T05:20:40.431Z,100994.63
2022-10-19T05:25:42.316Z,100995.03
2022-10-19T05:30:48.826Z,100998.47
2022-10-19T05:35:51.947Z,100998.63
2022-10-19T05:40:53.879Z,101001.19
2022-10-19T05:45:55.655Z,101009.72
2022-10-19T05:50:57.558Z,101014.16
2022-10-19T05:55:59.364Z,101012.44
2022-10-19T06:01:02.742Z,101020.47
2022-10-19T06:06:06.441Z,101022.06
2022-10-19T06:11:36.383Z,101028.56
2022-10-19T06:16:38.753Z,101021.63
2022-10-19T06:21:43.276Z,101027.72
2022-10-19T06:26:48.055Z,101020.19
2022-10-19T06:31:50.196Z,101027.28
2022-10-19T06:36:51.851Z,101029.81
2022-10-19T06:41:53.528Z,101034.09
2022-10-19T06:46:55.086Z,101029.53
2022-10-19T06:51:56.684Z,101043.34
2022-10-19T06:56:58.281Z,101044.13
2022-10-19T07:02:00.023Z,101046.66
2022-10-19T07:07:01.633Z,101048.50
2022-10-19T07:12:03.521Z,101052.66
2022-10-19T07:17:11.041Z,101061.38
2022-10-19T07:22:18.607Z,101058.47
2022-10-19T07:27:22.168Z,101063.00
2022-10-19T07:32:23.682Z,101074.59
2022-10-19T07:37:25.234Z,101080.47
2022-10-19T07:42:30.479Z,101083.69
2022-10-19T07:47:32.426Z,101077.69
2022-10-19T07:52:36.729Z,101081.28
2022-10-19T07:57:40.030Z,101085.44
2022-10-19T08:02:59.789Z,101082.50
2022-10-19T08:08:05.791Z,101092.75
2022-10-19T08:13:07.395Z,101098.19
2022-10-19T08:18:08.970Z,101099.75
2022-10-19T08:23:10.679Z,101108.66
2022-10-19T08:28:12.336Z,101101.28
2022-10-19T08:33:15.267Z,101106.41
2022-10-19T08:38:16.915Z,101113.06
2022-10-19T08:43:34.402Z,101098.81
2022-10-19T08:48:39.248Z,101101.06
2022-10-19T08:53:53.031Z,101099.09
2022-10-19T08:59:13.961Z,101101.94
2022-10-19T09:04:41.895Z,101096.38
2022-10-19T09:09:49.499Z,101093.50
2022-10-19T09:15:00.589Z,101096.72
2022-10-19T09:20:18.668Z,101091.63
2022-10-19T09:25:22.329Z,101092.31
2022-10-19T09:30:24.241Z,101092.06
2022-10-19T09:35:43.633Z,101100.22
2022-10-19T09:40:45.439Z,101098.88
2022-10-19T09:46:02.680Z,101101.63
2022-10-19T09:51:13.100Z,101103.66
2022-10-19T09:56:21.388Z,101101.16
2022-10-19T10:01:43.805Z,101107.34
2022-10-19T10:06:48.534Z,101110.47
2022-10-19T10:11:51.330Z,101113.00
2022-10-19T10:17:12.588Z,101104.22
2022-10-19T10:22:26.470Z,101107.78
2022-10-19T10:27:37.545Z,101108.44
2022-10-19T10:32:52.921Z,101102.69
2022-10-19T10:38:06.115Z,101101.25
2022-10-19T10:43:15.952Z,101109.50
2022-10-19T10:48:42.234Z,101111.53
2022-10-19T10:53:43.839Z,101105.44
2022-10-19T10:58:56.201Z,101109.13
2022-10-19T11:04:05.733Z,101111.50
2022-10-19T11:09:16.008Z,101118.69
2022-10-19T11:14:43.893Z,101117.06
2022-10-19T11:19:45.528Z,101114.88
2022-10-19T11:25:17.077Z,101115.00
2022-10-19T11:30:20.756Z,101111.03
2022-10-19T11:35:39.417Z,101110.53
2022-10-19T11:41:30.784Z,101106.44
2022-10-19T11:46:48.003Z,101108.72
2022-10-19T11:51:58.688Z,101109.13
2022-10-19T11:57:10.551Z,101110.06
2022-10-19T12:02:31.405Z,101107.72
2022-10-19T12:07:55.516Z,101086.78
2022-10-19T12:13:02.865Z,101076.31
2022-10-19T12:18:14.180Z,101083.16
2022-10-19T12:23:26.688Z,101071.66
2022-10-19T12:28:32.165Z,101084.91
2022-10-19T12:33:36.690Z,101075.31
2022-10-19T12:38:51.041Z,101084.16
2022-10-19T12:44:05.935Z,101083.00
2022-10-19T12:49:26.159Z,101076.31
2022-10-19T12:54:37.581Z,101079.22
2022-10-19T12:59:39.640Z,101070.41
2022-10-19T13:04:53.338Z,101076.53
2022-10-19T13:10:05.403Z,101063.19
2022-10-19T13:15:32.552Z,101060.00
2022-10-19T13:25:43.942Z,101055.59
2022-10-19T13:30:45.756Z,101052.13
2022-10-19T13:35:47.536Z,101052.06
2022-10-19T13:40:49.180Z,101055.94
2022-10-19T13:46:23.661Z,101046.78
2022-10-19T13:51:43.349Z,101047.53
2022-10-19T13:56:51.158Z,101048.03
2022-10-19T14:02:13.006Z,101047.13
2022-10-19T14:07:24.898Z,101037.41
2022-10-19T14:12:29.166Z,101034.16
2022-10-19T14:17:34.218Z,101034.41
2022-10-19T14:22:36.526Z,101036.72
2022-10-19T14:27:38.887Z,101027.63
2022-10-19T14:37:47.542Z,101026.84
2022-10-19T14:42:49.562Z,101020.38
2022-10-19T14:48:17.927Z,101023.44
2022-10-19T14:53:40.909Z,101030.06
2022-10-19T14:59:00.695Z,101020.69
2022-10-19T15:04:12.068Z,101016.72
2022-10-19T15:09:43.763Z,101007.56
2022-10-19T15:14:49.803Z,100999.84
2022-10-19T15:19:52.217Z,101006.75
2022-10-19T15:25:00.611Z,101012.47
2022-10-19T15:30:17.513Z,101005.63
2022-10-19T15:35:37.444Z,101010.91
2022-10-19T15:40:42.058Z,100998.28
2022-10-19T15:45:44.027Z,101004.22
2022-10-19T15:50:48.673Z,100995.00
2022-10-19T15:55:50.507Z,100993.91
2022-10-19T16:00:52.358Z,100997.06
2022-10-19T16:05:54.351Z,100992.81
2022-10-19T16:10:55.944Z,100992.38
2022-10-19T16:16:11.392Z,100998.72
2022-10-19T16:21:13.696Z,100990.06
2022-10-19T16:26:17.478Z,101003.97
2022-10-19T16:31:19.757Z,101007.91
2022-10-19T16:36:21.403Z,101011.59
2022-10-19T16:41:22.956Z,101007.41
2022-10-19T16:46:25.738Z,101010.06
2022-10-19T16:51:37.473Z,101002.41
2022-10-19T16:56:44.725Z,101011.50
2022-10-19T17:01:47.016Z,101015.22
2022-10-19T17:06:48.811Z,101015.53
2022-10-19T17:11:50.458Z,101017.91
2022-10-19T17:16:52.106Z,101023.94
2022-10-19T17:21:57.609Z,101025.91
2022-10-19T17:27:01.939Z,101032.56
2022-10-19T17:32:03.565Z,101036.03
2022-10-19T17:37:05.422Z,101032.53
2022-10-19T17:42:07.036Z,101037.03
2022-10-19T17:47:08.700Z,101040.75
2022-10-19T17:52:10.276Z,101045.28
2022-10-19T17:57:11.862Z,101054.78
2022-10-19T18:02:13.440Z,101051.34
2022-10-19T18:07:15.114Z,101050.69
2022-10-19T18:12:16.671Z,101049.09
2022-10-19T18:17:18.273Z,101058.13
2022-10-19T18:22:21.840Z,101063.38
2022-10-19T18:27:23.601Z,101061.63
2022-10-19T18:32:25.222Z,101060.88
2022-10-19T18:37:26.793Z,101056.59
2022-10-19T18:42:29.323Z,101046.88
2022-10-19T18:47:31.031Z,101044.13
2022-10-19T18:52:36.080Z,101040.78
2022-10-19T18:57:37.893Z,101032.19
2022-10-19T19:02:46.488Z,101034.91
2022-10-19T19:07:49.488Z,101035.84
2022-10-19T19:12:51.395Z,101028.88
2022-10-19T19:17:54.933Z,101024.50
2022-10-19T19:22:56.467Z,101025.41
2022-10-19T19:27:58.012Z,101014.97
2022-10-19T19:32:59.775Z,101025.44
2022-10-19T19:38:01.332Z,101033.28
2022-10-19T19:43:02.927Z,101034.13
2022-10-19T19:48:06.046Z,101032.41
2022-10-19T19:53:07.572Z,101036.75
2022-10-19T19:58:09.094Z,101035.91
2022-10-19T20:03:13.244Z,101043.72
2022-10-19T20:08:14.809Z,101048.94
2022-10-19T20:13:16.366Z,101045.44
2022-10-19T20:18:17.966Z,101053.28
2022-10-19T20:23:19.540Z,101054.13
2022-10-19T20:28:21.053Z,101052.44
2022-10-19T20:33:22.587Z,101057.63
2022-10-19T20:38:25.305Z,101057.59
2022-10-19T20:43:26.894Z,101056.69
2022-10-19T20:48:29.555Z,101056.66
2022-10-19T20:53:31.121Z,101054.81
2022-10-19T20:58:33.248Z,101051.31
2022-10-19T21:03:34.993Z,101052.19
2022-10-19T21:08:40.792Z,101048.81
2022-10-19T21:13:49.332Z,101053.94
2022-10-19T21:18:56.695Z,101052.03
2022-10-19T21:24:05.533Z,101047.63
2022-10-19T21:29:11.559Z,101045.13
2022-10-19T21:34:16.755Z,101044.19
2022-10-19T21:39:19.000Z,101048.38
2022-10-19T21:44:23.061Z,101033.59
2022-10-19T21:49:24.693Z,101029.25
2022-10-19T21:54:26.326Z,101020.56
2022-10-19T21:59:27.853Z,101019.69
2022-10-19T22:04:29.409Z,101021.63
2022-10-19T22:09:31.155Z,101014.56
2022-10-19T22:14:32.673Z,101004.13
2022-10-19T22:19:34.212Z,101003.38
2022-10-19T22:24:35.884Z,100992.84
2022-10-19T22:29:37.487Z,100987.59
2022-10-19T22:34:39.404Z,100991.00
2022-10-19T22:44:43.472Z,100993.44
2022-10-19T22:49:45.102Z,100990.59
2022-10-19T22:54:47.057Z,100987.03
2022-10-19T22:59:48.636Z,100978.50
2022-10-19T23:04:50.168Z,100979.44
2022-10-19T23:09:52.380Z,100978.59
2022-10-19T23:14:53.914Z,100981.19
2022-10-19T23:19:55.507Z,100983.78
2022-10-19T23:24:57.033Z,100974.94
2022-10-19T23:29:59.261Z,100976.56
2022-10-19T23:35:00.833Z,100977.66
2022-10-19T23:40:03.708Z,100977.22
2022-10-19T23:45:05.724Z,100966.06
2022-10-19T23:50:07.573Z,100963.50
2022-10-19T23:55:09.244Z,100964.13
